createdAt,value
2017-02-27T00:00:31.530Z,0
2017-02-27T00:01:45.296Z,0
2017-02-27T00:02:59.682Z,0
2017-02-27T00:04:14.124Z,0
2017-02-27T00:05:28.523Z,0
2017-02-27T00:06:42.275Z,0
2017-02-27T00:07:56.682Z,0
2017-02-27T00:09:11.079Z,0
2017-02-27T00:10:25.498Z,0
2017-02-27T00:11:38.614Z,0
2017-02-27T00:12:52.370Z,0
2017-02-27T00:14:06.754Z,0
2017-02-27T00:15:21.180Z,0
2017-02-27T00:16:35.655Z,0
2017-02-27T00:17:50.058Z,0
2017-02-27T00:19:03.825Z,0
2017-02-27T00:20:18.210Z,0
2017-02-27T00:21:32.634Z,0
2017-02-27T00:22:47.041Z,0
2017-02-27T00:24:01.442Z,0
2017-02-27T00:25:15.174Z,0
2017-02-27T00:26:29.551Z,0
2017-02-27T00:27:43.958Z,0
2017-02-27T00:28:57.704Z,0
2017-02-27T00:30:12.109Z,0
2017-02-27T00:31:25.254Z,0
2017-02-27T00:32:39.016Z,0
2017-02-27T00:33:53.415Z,0
2017-02-27T00:35:07.799Z,0
2017-02-27T00:36:22.207Z,0
2017-02-27T00:37:35.979Z,0
2017-02-27T00:38:50.394Z,0
2017-02-27T00:40:04.778Z,0
2017-02-27T00:41:19.163Z,0
2017-02-27T00:42:32.311Z,0
2017-02-27T00:43:45.449Z,0
2017-02-27T00:44:59.171Z,0
2017-02-27T00:46:13.586Z,0
2017-02-27T00:47:28.027Z,0
2017-02-27T00:48:42.403Z,0
2017-02-27T00:49:56.831Z,0
2017-02-27T00:51:11.252Z,0
2017-02-27T00:52:25.643Z,0
2017-02-27T00:53:40.065Z,0
2017-02-27T00:54:53.819Z,0
2017-02-27T00:56:08.242Z,0
2017-02-27T00:57:22.635Z,0
2017-02-27T00:58:36.367Z,0
2017-02-27T00:59:49.502Z,0
2017-02-27T01:01:03.887Z,0
2017-02-27T01:02:18.271Z,0
2017-02-27T01:03:32.002Z,0
2017-02-27T01:04:46.390Z,0
2017-02-27T01:06:00.782Z,0
2017-02-27T01:07:15.203Z,0
2017-02-27T01:08:29.619Z,0
2017-02-27T01:09:43.390Z,0
2017-02-27T01:10:57.756Z,0
2017-02-27T01:12:12.154Z,0
2017-02-27T01:13:25.934Z,0
2017-02-27T01:14:39.680Z,0
2017-02-27T01:15:53.411Z,0
2017-02-27T01:17:06.523Z,0
2017-02-27T01:18:20.976Z,0
2017-02-27T01:19:34.726Z,0
2017-02-27T01:20:49.085Z,0
2017-02-27T01:22:02.837Z,0
2017-02-27T01:23:17.282Z,0
2017-02-27T01:24:31.673Z,0
2017-02-27T01:25:45.451Z,0
2017-02-27T01:26:59.841Z,0
2017-02-27T01:28:14.239Z,0
2017-02-27T01:29:28.601Z,0
2017-02-27T01:30:43.002Z,0
2017-02-27T01:31:57.355Z,0
2017-02-27T01:33:11.789Z,0
2017-02-27T01:34:26.196Z,0
2017-02-27T01:48:47.931Z,0
2017-02-27T01:53:06.565Z,0
2017-02-27T01:54:20.347Z,0
2017-02-27T01:55:34.700Z,0
2017-02-27T01:56:48.434Z,0
2017-02-27T01:58:02.852Z,0
2017-02-27T01:59:16.597Z,0
2017-02-27T02:00:31.005Z,0
2017-02-27T02:01:44.777Z,0
2017-02-27T02:02:59.154Z,0
2017-02-27T02:04:12.888Z,0
2017-02-27T02:05:27.307Z,0
2017-02-27T02:06:41.788Z,0
2017-02-27T02:07:56.198Z,0
2017-02-27T02:09:10.576Z,0
2017-02-27T02:10:23.703Z,0
2017-02-27T02:11:36.823Z,0
2017-02-27T02:12:51.169Z,0
2017-02-27T02:14:05.563Z,0
2017-02-27T02:15:19.314Z,0
2017-02-27T02:16:33.695Z,0
2017-02-27T02:17:48.110Z,0
2017-02-27T02:19:02.548Z,0
2017-02-27T02:20:16.905Z,0
2017-02-27T02:21:31.292Z,0
2017-02-27T02:22:45.694Z,0
2017-02-27T02:23:59.464Z,0
2017-02-27T02:25:13.881Z,0
2017-02-27T02:26:28.264Z,0
2017-02-27T02:27:42.686Z,0
2017-02-27T02:28:57.098Z,0
2017-02-27T02:30:10.909Z,0
2017-02-27T02:31:25.280Z,0
2017-02-27T02:32:38.393Z,0
2017-02-27T02:33:52.815Z,0
2017-02-27T02:35:07.220Z,0
2017-02-27T02:36:20.979Z,0
2017-02-27T02:37:35.398Z,0
2017-02-27T02:38:48.476Z,0
2017-02-27T02:40:02.833Z,0
2017-02-27T02:41:16.563Z,0
2017-02-27T02:42:30.975Z,0
2017-02-27T02:43:45.332Z,0
2017-02-27T02:44:59.739Z,0
2017-02-27T02:46:14.151Z,0
2017-02-27T02:47:28.555Z,0
2017-02-27T02:48:42.975Z,0
2017-02-27T02:49:57.357Z,0
2017-02-27T02:51:11.754Z,0
2017-02-27T02:52:26.128Z,0
2017-02-27T02:53:39.869Z,0
2017-02-27T02:54:54.307Z,0
2017-02-27T02:56:08.704Z,0
2017-02-27T02:57:23.064Z,0
2017-02-27T02:58:37.443Z,0
2017-02-27T02:59:51.870Z,0
2017-02-27T03:01:06.257Z,0
2017-02-27T03:02:20.650Z,0
2017-02-27T03:03:34.388Z,0
2017-02-27T03:04:48.771Z,0
2017-02-27T03:06:03.185Z,0
2017-02-27T03:07:17.569Z,0
2017-02-27T03:08:31.314Z,0
2017-02-27T03:09:45.685Z,0
2017-02-27T03:10:58.804Z,0
2017-02-27T03:12:12.541Z,0
2017-02-27T03:13:26.295Z,0
2017-02-27T03:14:40.022Z,0
2017-02-27T03:15:53.727Z,0
2017-02-27T03:17:08.117Z,0
2017-02-27T03:18:22.565Z,0
2017-02-27T03:19:36.961Z,0
2017-02-27T03:20:51.368Z,0
2017-02-27T03:22:05.145Z,0
2017-02-27T03:23:18.301Z,0
2017-02-27T03:24:32.689Z,0
2017-02-27T03:25:47.095Z,0
2017-02-27T03:27:00.835Z,0
2017-02-27T03:28:15.253Z,0
2017-02-27T03:29:29.669Z,0
2017-02-27T03:30:43.449Z,0
2017-02-27T03:31:57.835Z,0
2017-02-27T03:33:12.281Z,0
2017-02-27T03:34:26.683Z,0
2017-02-27T03:35:41.053Z,0
2017-02-27T03:36:54.773Z,0
2017-02-27T03:38:09.165Z,0
2017-02-27T03:39:23.543Z,0
2017-02-27T03:40:37.946Z,0
2017-02-27T03:41:52.352Z,0
2017-02-27T03:43:06.741Z,0
2017-02-27T03:44:20.470Z,0
2017-02-27T03:45:34.821Z,0
2017-02-27T03:46:49.193Z,0
2017-02-27T03:48:03.612Z,0
2017-02-27T03:49:18.241Z,0
2017-02-27T03:50:31.989Z,0
2017-02-27T03:51:46.413Z,0
2017-02-27T03:53:00.814Z,0
2017-02-27T03:54:15.242Z,0
2017-02-27T03:55:29.603Z,0
2017-02-27T03:56:43.364Z,0
2017-02-27T03:57:57.747Z,0
2017-02-27T03:59:12.179Z,0
2017-02-27T04:00:25.960Z,0
2017-02-27T04:01:40.342Z,0
2017-02-27T04:02:54.755Z,0
2017-02-27T04:04:09.181Z,0
2017-02-27T04:05:23.615Z,0
2017-02-27T04:06:38.007Z,0
2017-02-27T04:07:52.388Z,0
2017-02-27T04:09:06.787Z,0
2017-02-27T04:10:31.449Z,0
2017-02-27T04:11:45.849Z,0
2017-02-27T04:13:00.202Z,0
2017-02-27T04:14:14.634Z,0
2017-02-27T04:15:28.377Z,0
2017-02-27T04:16:42.101Z,0
2017-02-27T04:17:56.502Z,0
2017-02-27T04:19:10.882Z,0
2017-02-27T04:20:25.278Z,0
2017-02-27T04:21:39.691Z,0
2017-02-27T04:22:53.403Z,0
2017-02-27T04:24:07.834Z,0
2017-02-27T04:25:22.215Z,0
2017-02-27T04:26:36.588Z,0
2017-02-27T04:27:50.967Z,0
2017-02-27T04:29:04.696Z,0
2017-02-27T04:30:18.454Z,0
2017-02-27T04:31:32.878Z,0
2017-02-27T04:32:47.253Z,0
2017-02-27T04:34:01.039Z,0
2017-02-27T04:35:15.474Z,0
2017-02-27T04:36:29.843Z,0
2017-02-27T04:37:44.208Z,0
2017-02-27T04:38:58.583Z,0
2017-02-27T04:40:12.408Z,0
2017-02-27T04:41:25.536Z,0
2017-02-27T04:42:39.934Z,0
2017-02-27T04:43:53.712Z,0
2017-02-27T04:45:08.091Z,0
2017-02-27T04:46:22.446Z,0
2017-02-27T04:47:36.894Z,0
2017-02-27T04:48:51.261Z,0
2017-02-27T04:50:05.630Z,0
2017-02-27T04:51:19.383Z,0
2017-02-27T04:52:33.136Z,0
2017-02-27T04:53:47.558Z,0
2017-02-27T04:55:01.304Z,0
2017-02-27T04:56:15.696Z,0
2017-02-27T04:57:30.029Z,0
2017-02-27T04:58:44.426Z,0
2017-02-27T04:59:58.173Z,0
2017-02-27T05:01:12.600Z,0
2017-02-27T05:02:25.683Z,0
2017-02-27T05:03:40.088Z,0
2017-02-27T05:04:54.448Z,0
2017-02-27T05:06:08.896Z,0
2017-02-27T05:07:23.316Z,0
2017-02-27T05:08:37.060Z,0
2017-02-27T05:09:51.489Z,0
2017-02-27T05:11:05.877Z,0
2017-02-27T05:12:20.288Z,0
2017-02-27T05:13:34.060Z,0
2017-02-27T05:14:48.481Z,0
2017-02-27T05:16:02.901Z,0
2017-02-27T05:17:17.279Z,0
2017-02-27T05:18:31.054Z,0
2017-02-27T05:19:45.504Z,0
2017-02-27T05:20:59.264Z,0
2017-02-27T05:22:13.741Z,0
2017-02-27T05:23:28.165Z,0
2017-02-27T05:24:42.556Z,0
2017-02-27T05:25:56.334Z,0
2017-02-27T05:27:10.089Z,0
2017-02-27T05:28:23.911Z,0
2017-02-27T05:29:38.342Z,0
2017-02-27T05:30:52.782Z,0
2017-02-27T05:32:07.177Z,0
2017-02-27T05:33:21.567Z,0
2017-02-27T05:34:35.974Z,0
2017-02-27T05:35:49.715Z,0
2017-02-27T05:37:04.140Z,0
2017-02-27T05:38:18.540Z,0
2017-02-27T05:39:32.276Z,0
2017-02-27T05:40:46.719Z,0
2017-02-27T05:42:01.131Z,0
2017-02-27T05:43:15.528Z,0
2017-02-27T05:44:29.988Z,0
2017-02-27T05:45:44.385Z,0
2017-02-27T05:46:58.809Z,0
2017-02-27T05:48:13.249Z,0
2017-02-27T05:49:27.626Z,0
2017-02-27T05:50:42.022Z,0
2017-02-27T05:51:56.492Z,0
2017-02-27T05:53:10.884Z,0
2017-02-27T05:54:24.660Z,0
2017-02-27T05:55:37.152Z,0
2017-02-27T05:56:50.978Z,0
2017-02-27T05:58:05.392Z,0
2017-02-27T05:59:19.859Z,0
2017-02-27T06:00:34.256Z,0
2017-02-27T06:01:48.678Z,0
2017-02-27T06:03:03.136Z,0
2017-02-27T06:04:17.535Z,0
2017-02-27T06:05:31.907Z,0
2017-02-27T06:06:46.274Z,0
2017-02-27T06:08:00.057Z,0
2017-02-27T06:09:14.464Z,0
2017-02-27T06:10:28.851Z,0
2017-02-27T06:11:43.290Z,0
2017-02-27T06:12:57.705Z,0
2017-02-27T06:14:11.522Z,0
2017-02-27T06:15:25.917Z,0
2017-02-27T06:16:40.318Z,0
2017-02-27T06:17:54.721Z,0
2017-02-27T06:19:08.487Z,0
2017-02-27T06:20:22.909Z,0
2017-02-27T06:21:37.328Z,0
2017-02-27T06:22:51.202Z,0
2017-02-27T06:24:05.605Z,0
2017-02-27T06:25:19.992Z,0
2017-02-27T06:26:33.764Z,0
2017-02-27T06:27:48.180Z,0
2017-02-27T06:29:02.590Z,0
2017-02-27T06:30:17.013Z,0
2017-02-27T06:31:31.389Z,0
2017-02-27T06:32:45.848Z,0
2017-02-27T06:34:00.265Z,0
2017-02-27T06:35:14.668Z,0
2017-02-27T06:36:28.448Z,0
2017-02-27T06:37:42.195Z,0
2017-02-27T06:38:56.629Z,0
2017-02-27T06:40:11.096Z,0
2017-02-27T06:41:24.874Z,0
2017-02-27T06:42:39.296Z,0
2017-02-27T06:43:53.702Z,0
2017-02-27T06:45:08.082Z,0
2017-02-27T06:46:22.504Z,0
2017-02-27T06:47:36.976Z,0
2017-02-27T06:48:51.406Z,0
2017-02-27T06:50:05.191Z,0
2017-02-27T06:51:19.644Z,0
2017-02-27T06:52:34.088Z,0
2017-02-27T06:53:48.531Z,0
2017-02-27T06:55:02.955Z,0
2017-02-27T06:56:16.712Z,0
2017-02-27T06:57:31.103Z,0
2017-02-27T06:58:45.514Z,0
2017-02-27T06:59:59.942Z,0
2017-02-27T07:01:13.708Z,0
2017-02-27T07:02:26.883Z,0
2017-02-27T07:03:39.990Z,0
2017-02-27T07:04:54.373Z,0
2017-02-27T07:06:08.829Z,0
2017-02-27T07:07:22.623Z,0
2017-02-27T07:08:35.725Z,0
2017-02-27T07:09:50.138Z,0
2017-02-27T07:11:03.912Z,0
2017-02-27T07:12:17.668Z,0
2017-02-27T07:13:31.433Z,0
2017-02-27T07:14:45.214Z,0
2017-02-27T07:15:58.972Z,0
2017-02-27T07:17:13.391Z,0
2017-02-27T07:18:27.813Z,0
2017-02-27T07:19:42.236Z,0
2017-02-27T07:20:56.675Z,0
2017-02-27T07:22:11.465Z,0
2017-02-27T07:23:25.879Z,0
2017-02-27T07:24:39.682Z,0
2017-02-27T07:25:54.074Z,0
2017-02-27T07:27:08.446Z,0
2017-02-27T07:28:22.885Z,0
2017-02-27T07:29:37.301Z,0
2017-02-27T07:30:51.063Z,0
2017-02-27T07:32:05.431Z,0
2017-02-27T07:33:19.829Z,0
2017-02-27T07:34:33.574Z,0
2017-02-27T07:35:47.980Z,0
2017-02-27T07:37:02.393Z,0
2017-02-27T07:38:16.808Z,0
2017-02-27T07:39:31.224Z,0
2017-02-27T07:40:45.642Z,0
2017-02-27T07:42:00.061Z,0
2017-02-27T07:43:13.827Z,0
2017-02-27T07:44:28.273Z,0
2017-02-27T07:45:42.645Z,0
2017-02-27T07:46:57.051Z,0
2017-02-27T07:48:11.497Z,0
2017-02-27T07:49:25.913Z,0
2017-02-27T07:50:40.300Z,0
2017-02-27T07:51:54.726Z,0
2017-02-27T07:53:09.134Z,0
2017-02-27T07:54:23.541Z,0
2017-02-27T07:55:37.941Z,0
2017-02-27T07:56:51.714Z,0
2017-02-27T07:58:06.137Z,0
2017-02-27T07:59:20.537Z,0
2017-02-27T08:00:34.963Z,0
2017-02-27T08:01:49.383Z,0
2017-02-27T08:03:03.835Z,0
2017-02-27T08:04:18.259Z,0
2017-02-27T08:05:32.742Z,0
2017-02-27T08:06:47.163Z,0
2017-02-27T08:08:00.953Z,0
2017-02-27T08:09:15.354Z,0
2017-02-27T08:10:29.124Z,0
2017-02-27T08:11:43.488Z,0
2017-02-27T08:12:57.882Z,0
2017-02-27T08:14:12.251Z,0
2017-02-27T08:15:26.035Z,0
2017-02-27T08:16:40.500Z,0
2017-02-27T08:17:54.965Z,0
2017-02-27T08:19:09.377Z,0
2017-02-27T08:20:23.147Z,0
2017-02-27T08:21:36.938Z,0
2017-02-27T08:22:51.363Z,0
2017-02-27T08:24:05.782Z,0
2017-02-27T08:25:20.188Z,0
2017-02-27T08:26:34.583Z,0
2017-02-27T08:27:48.986Z,0
2017-02-27T08:29:03.407Z,0
2017-02-27T08:30:17.200Z,0
2017-02-27T08:31:30.970Z,0
2017-02-27T08:32:45.366Z,0
2017-02-27T08:33:59.799Z,0
2017-02-27T08:35:13.585Z,0
2017-02-27T08:36:27.988Z,0
2017-02-27T08:37:42.351Z,4
2017-02-27T08:38:56.087Z,4
2017-02-27T08:40:09.223Z,4
2017-02-27T08:41:23.623Z,8
2017-02-27T08:42:38.049Z,8
2017-02-27T08:43:52.456Z,12
2017-02-27T08:45:06.212Z,16
2017-02-27T08:46:20.642Z,20
2017-02-27T08:47:35.055Z,32
2017-02-27T08:48:49.499Z,44
2017-02-27T08:50:03.917Z,60
2017-02-27T08:51:18.288Z,80
2017-02-27T08:52:32.683Z,104
2017-02-27T08:53:47.079Z,132
2017-02-27T08:55:01.474Z,164
2017-02-27T08:56:15.870Z,204
2017-02-27T08:57:30.282Z,256
2017-02-27T08:58:44.705Z,308
2017-02-27T08:59:58.440Z,372
2017-02-27T09:01:10.932Z,432
2017-02-27T09:02:25.341Z,504
2017-02-27T09:03:39.102Z,576
2017-02-27T09:04:52.875Z,660
2017-02-27T09:06:07.336Z,752
2017-02-27T09:07:21.732Z,856
2017-02-27T09:08:36.126Z,968
2017-02-27T09:09:50.547Z,1068
2017-02-27T09:11:04.312Z,1164
2017-02-27T09:12:18.091Z,1296
2017-02-27T09:13:32.537Z,1476
2017-02-27T09:14:46.928Z,1608
2017-02-27T09:16:01.300Z,1752
2017-02-27T09:17:15.708Z,1996
2017-02-27T09:18:30.105Z,2256
2017-02-27T09:19:44.504Z,2380
2017-02-27T09:20:58.908Z,2644
2017-02-27T09:22:12.001Z,3128
2017-02-27T09:23:26.425Z,4264
2017-02-27T09:24:40.808Z,5736
2017-02-27T09:25:55.167Z,6484
2017-02-27T09:27:08.901Z,6772
2017-02-27T09:28:23.280Z,7160
2017-02-27T09:29:37.708Z,7860
2017-02-27T09:30:52.126Z,8236
2017-02-27T09:32:06.511Z,7780
2017-02-27T09:33:20.287Z,8060
2017-02-27T09:34:34.659Z,9084
2017-02-27T09:35:49.053Z,11084
2017-02-27T09:37:03.501Z,11992
2017-02-27T09:38:17.893Z,12452
2017-02-27T09:39:32.266Z,12328
2017-02-27T09:40:46.699Z,12364
2017-02-27T09:42:00.491Z,14240
2017-02-27T09:43:14.223Z,15360
2017-02-27T09:44:28.585Z,15712
2017-02-27T09:45:42.308Z,15968
2017-02-27T09:46:56.714Z,17376
2017-02-27T09:48:11.118Z,18176
2017-02-27T09:49:25.518Z,17952
2017-02-27T09:50:38.678Z,19200
2017-02-27T09:51:52.460Z,20096
2017-02-27T09:53:06.874Z,20576
2017-02-27T09:54:21.324Z,21280
2017-02-27T09:55:35.751Z,22400
2017-02-27T09:56:50.621Z,23200
2017-02-27T09:58:05.013Z,23136
2017-02-27T09:59:19.404Z,24224
2017-02-27T10:00:33.818Z,24832
2017-02-27T10:01:48.188Z,25824
2017-02-27T10:03:02.600Z,26048
2017-02-27T10:04:16.965Z,26560
2017-02-27T10:05:31.348Z,28288
2017-02-27T10:06:45.737Z,28448
2017-02-27T10:08:00.158Z,29536
2017-02-27T10:09:14.580Z,30528
2017-02-27T10:10:28.963Z,30944
2017-02-27T10:11:42.719Z,31360
2017-02-27T10:12:57.113Z,32192
2017-02-27T10:14:11.552Z,32800
2017-02-27T10:15:25.373Z,34624
2017-02-27T10:16:39.122Z,35872
2017-02-27T10:17:53.484Z,35584
2017-02-27T10:19:07.852Z,37280
2017-02-27T10:20:22.241Z,37664
2017-02-27T10:21:36.698Z,39040
2017-02-27T10:22:51.108Z,39712
2017-02-27T10:24:05.475Z,41408
2017-02-27T10:25:19.870Z,43296
2017-02-27T10:26:34.266Z,42688
2017-02-27T10:27:48.638Z,42144
2017-02-27T10:29:03.013Z,43104
2017-02-27T10:30:17.396Z,43104
2017-02-27T10:31:31.806Z,44320
2017-02-27T10:32:46.234Z,42624
2017-02-27T10:34:00.641Z,44864
2017-02-27T10:35:15.052Z,41792
2017-02-27T10:36:29.491Z,44736
2017-02-27T10:37:43.883Z,48096
2017-02-27T10:38:58.257Z,47712
2017-02-27T10:40:12.704Z,48992
2017-02-27T10:41:27.151Z,51872
2017-02-27T10:42:41.569Z,48640
2017-02-27T10:43:55.978Z,51296
2017-02-27T10:45:10.362Z,51616
2017-02-27T10:46:24.757Z,53344
2017-02-27T10:47:38.828Z,54720
2017-02-27T10:48:53.246Z,55520
2017-02-27T10:50:07.645Z,57728
2017-02-27T10:51:22.067Z,56704
2017-02-27T10:52:36.453Z,56384
2017-02-27T10:53:50.853Z,59616
2017-02-27T10:55:05.252Z,58304
2017-02-27T10:56:19.021Z,59584
2017-02-27T10:57:32.140Z,61504
2017-02-27T10:58:46.531Z,60512
2017-02-27T11:00:00.930Z,60512
2017-02-27T11:01:15.315Z,62784
2017-02-27T11:02:29.732Z,61632
2017-02-27T11:03:43.472Z,64608
2017-02-27T11:04:57.890Z,65600
2017-02-27T11:06:12.283Z,64256
2017-02-27T11:07:26.061Z,64064
2017-02-27T11:08:40.453Z,61856
2017-02-27T11:09:54.836Z,61472
2017-02-27T11:11:09.286Z,59200
2017-02-27T11:12:23.768Z,63808
2017-02-27T11:13:38.187Z,68512
2017-02-27T11:14:51.936Z,69920
2017-02-27T11:16:06.316Z,71936
2017-02-27T11:17:20.087Z,69344
2017-02-27T11:18:34.505Z,67040
2017-02-27T11:19:49.024Z,67776
2017-02-27T11:21:03.444Z,68064
2017-02-27T11:22:17.874Z,68480
2017-02-27T11:23:32.266Z,64736
2017-02-27T11:24:46.696Z,59680
2017-02-27T11:26:01.108Z,72256
2017-02-27T11:27:14.244Z,63008
2017-02-27T11:28:28.611Z,67072
2017-02-27T11:29:43.020Z,41952
2017-02-27T11:30:57.428Z,74208
2017-02-27T11:32:11.899Z,70880
2017-02-27T11:33:26.330Z,73856
2017-02-27T11:34:40.738Z,68064
2017-02-27T11:35:55.102Z,74144
2017-02-27T11:37:09.466Z,87360
2017-02-27T11:38:23.838Z,80704
2017-02-27T11:39:38.258Z,70464
2017-02-27T11:40:52.646Z,70304
2017-02-27T11:42:07.024Z,72608
2017-02-27T11:43:20.775Z,89376
2017-02-27T11:44:35.202Z,91136
2017-02-27T11:45:49.658Z,79648
2017-02-27T11:47:04.068Z,74592
2017-02-27T11:48:18.464Z,72960
2017-02-27T11:49:32.231Z,73856
2017-02-27T11:50:46.661Z,75008
2017-02-27T11:52:01.070Z,63808
2017-02-27T11:53:15.464Z,53632
2017-02-27T11:54:29.239Z,55488
2017-02-27T11:55:43.001Z,57920
2017-02-27T11:56:57.403Z,60544
2017-02-27T11:58:11.184Z,64928
2017-02-27T11:59:25.593Z,71520
2017-02-27T12:00:39.387Z,77088
2017-02-27T12:01:53.795Z,84224
2017-02-27T12:03:08.222Z,79968
2017-02-27T12:04:22.625Z,87680
2017-02-27T12:05:37.039Z,91200
2017-02-27T12:06:50.875Z,96672
2017-02-27T12:08:05.264Z,94496
2017-02-27T12:09:18.989Z,92832
2017-02-27T12:10:32.108Z,90656
2017-02-27T12:11:46.499Z,89760
2017-02-27T12:13:00.893Z,70240
2017-02-27T12:14:15.292Z,71840
2017-02-27T12:15:29.707Z,38272
2017-02-27T12:16:44.113Z,117344
2017-02-27T12:17:57.856Z,114368
2017-02-27T12:19:12.280Z,112960
2017-02-27T12:20:26.658Z,109312
2017-02-27T12:21:41.068Z,111616
2017-02-27T12:22:54.867Z,117632
2017-02-27T12:24:09.264Z,102240
2017-02-27T12:25:23.061Z,103936
2017-02-27T12:26:36.181Z,102560
2017-02-27T12:27:50.565Z,98368
2017-02-27T12:29:04.962Z,99168
2017-02-27T12:30:19.469Z,99008
2017-02-27T12:31:33.197Z,93216
2017-02-27T12:32:46.966Z,95840
2017-02-27T12:34:01.345Z,101184
2017-02-27T12:35:15.758Z,102400
2017-02-27T12:36:30.214Z,96992
2017-02-27T12:37:43.964Z,95712
2017-02-27T12:38:58.357Z,94432
2017-02-27T12:40:12.117Z,94592
2017-02-27T12:41:25.879Z,92384
2017-02-27T12:42:40.278Z,110400
2017-02-27T12:43:54.078Z,111040
2017-02-27T12:45:08.467Z,91328
2017-02-27T12:46:22.880Z,102048
2017-02-27T12:47:36.617Z,79072
2017-02-27T12:48:51.050Z,105632
2017-02-27T12:50:05.433Z,108320
2017-02-27T12:51:19.165Z,112192
2017-02-27T12:52:31.678Z,117440
2017-02-27T12:53:45.427Z,123776
2017-02-27T12:54:59.227Z,52800
2017-02-27T12:56:13.001Z,93472
2017-02-27T12:57:27.438Z,73888
2017-02-27T12:58:41.227Z,104992
2017-02-27T12:59:54.987Z,30368
2017-02-27T13:01:09.403Z,26112
2017-02-27T13:02:23.169Z,31232
2017-02-27T13:03:37.564Z,120448
2017-02-27T13:04:51.326Z,38336
2017-02-27T13:06:05.711Z,41024
2017-02-27T13:07:20.121Z,34848
2017-02-27T13:08:34.514Z,37984
2017-02-27T13:09:48.274Z,127968
2017-02-27T13:11:27.794Z,69184
2017-02-27T13:12:41.591Z,35744
2017-02-27T13:13:55.313Z,0
2017-02-27T13:15:09.102Z,129216
2017-02-27T13:16:23.530Z,43808
2017-02-27T13:17:37.924Z,90144
2017-02-27T13:18:52.344Z,107680
2017-02-27T13:20:06.751Z,30048
2017-02-27T13:21:21.155Z,29120
2017-02-27T13:22:34.901Z,104896
2017-02-27T13:23:49.353Z,138944
2017-02-27T13:25:02.494Z,106016
2017-02-27T13:26:16.926Z,33216
2017-02-27T13:27:31.353Z,79104
2017-02-27T13:28:45.824Z,128928
2017-02-27T13:29:59.603Z,126400
2017-02-27T13:31:14.040Z,138560
2017-02-27T13:32:27.164Z,140544
2017-02-27T13:33:40.982Z,46720
2017-02-27T13:34:55.393Z,107104
2017-02-27T13:36:09.852Z,28000
2017-02-27T13:37:24.228Z,23264
2017-02-27T13:38:38.590Z,22464
2017-02-27T13:39:52.972Z,24512
2017-02-27T13:41:07.395Z,26304
2017-02-27T13:42:20.522Z,26784
2017-02-27T13:43:34.299Z,28544
2017-02-27T13:44:48.718Z,28736
2017-02-27T13:46:03.114Z,26848
2017-02-27T13:47:16.883Z,27104
2017-02-27T13:48:30.622Z,105568
2017-02-27T13:49:44.404Z,78944
2017-02-27T13:50:58.845Z,135008
2017-02-27T13:52:13.211Z,128096
2017-02-27T13:53:27.611Z,137952
2017-02-27T13:54:41.407Z,139072
2017-02-27T13:55:55.758Z,138144
2017-02-27T13:57:10.183Z,138144
2017-02-27T13:58:24.556Z,139488
2017-02-27T13:59:39.011Z,141280
2017-02-27T14:00:53.426Z,44032
2017-02-27T14:02:07.845Z,127328
2017-02-27T14:03:22.249Z,135968
2017-02-27T14:04:36.640Z,100640
2017-02-27T14:05:51.051Z,150240
2017-02-27T14:07:05.448Z,154720
2017-02-27T14:08:19.234Z,44000
2017-02-27T14:09:33.004Z,112800
2017-02-27T14:10:47.412Z,34272
2017-02-27T14:12:01.823Z,145280
2017-02-27T14:13:16.288Z,129664
2017-02-27T14:14:30.696Z,126528
2017-02-27T14:15:45.101Z,133056
2017-02-27T14:16:58.853Z,133024
2017-02-27T14:18:13.269Z,140096
2017-02-27T14:19:27.004Z,18288
2017-02-27T14:20:41.404Z,18276
2017-02-27T14:21:55.813Z,19648
2017-02-27T14:23:10.199Z,19872
2017-02-27T14:24:24.620Z,21696
2017-02-27T14:25:39.042Z,136480
2017-02-27T14:26:53.487Z,134592
2017-02-27T14:28:07.926Z,139136
2017-02-27T14:29:22.366Z,144352
2017-02-27T14:30:36.784Z,40000
2017-02-27T14:31:51.239Z,32160
2017-02-27T14:33:04.992Z,30880
2017-02-27T14:34:19.422Z,48800
2017-02-27T14:35:33.823Z,39776
2017-02-27T14:36:48.207Z,67488
2017-02-27T14:38:02.601Z,111808
2017-02-27T14:39:17.021Z,137792
2017-02-27T14:40:30.822Z,152320
2017-02-27T14:41:44.602Z,149184
2017-02-27T14:42:59.079Z,48192
2017-02-27T14:44:13.512Z,50912
2017-02-27T14:45:27.972Z,48032
2017-02-27T14:46:42.437Z,44384
2017-02-27T14:47:56.923Z,154912
2017-02-27T14:49:11.413Z,31968
2017-02-27T14:50:25.890Z,28288
2017-02-27T14:51:40.340Z,31072
2017-02-27T14:52:54.812Z,14652
2017-02-27T14:54:09.258Z,126560
2017-02-27T14:55:23.729Z,35744
2017-02-27T14:56:38.223Z,26848
2017-02-27T14:57:52.031Z,22784
2017-02-27T14:59:06.507Z,20928
2017-02-27T15:00:20.350Z,20480
2017-02-27T15:01:34.826Z,22688
2017-02-27T15:02:49.292Z,26304
2017-02-27T15:04:03.785Z,32096
2017-02-27T15:05:16.946Z,47232
2017-02-27T15:06:31.402Z,157248
2017-02-27T15:07:45.848Z,14720
2017-02-27T15:09:00.302Z,102368
2017-02-27T15:10:14.137Z,98816
2017-02-27T15:11:28.614Z,98112
2017-02-27T15:12:43.102Z,30336
2017-02-27T15:13:57.580Z,30752
2017-02-27T15:15:12.044Z,11784
2017-02-27T15:16:26.492Z,31232
2017-02-27T15:17:40.296Z,49088
2017-02-27T15:18:54.768Z,47872
2017-02-27T15:20:08.595Z,159744
2017-02-27T15:21:23.058Z,147904
2017-02-27T15:22:36.883Z,137216
2017-02-27T15:23:51.352Z,139456
2017-02-27T15:25:05.837Z,143200
2017-02-27T15:26:20.272Z,55040
2017-02-27T15:27:34.741Z,37408
2017-02-27T15:28:49.214Z,92832
2017-02-27T15:30:03.060Z,73504
2017-02-27T15:31:16.896Z,27008
2017-02-27T15:32:31.367Z,27040
2017-02-27T15:33:45.805Z,26784
2017-02-27T15:35:00.289Z,27456
2017-02-27T15:36:14.784Z,27136
2017-02-27T15:37:29.252Z,26880
2017-02-27T15:38:43.704Z,28000
2017-02-27T15:39:57.542Z,28448
2017-02-27T15:41:12.024Z,29664
2017-02-27T15:42:26.539Z,154592
2017-02-27T15:43:40.997Z,146496
2017-02-27T15:44:55.471Z,139904
2017-02-27T15:46:09.324Z,138624
2017-02-27T15:47:23.806Z,143424
2017-02-27T15:48:37.834Z,140608
2017-02-27T15:49:51.641Z,134720
2017-02-27T15:51:05.431Z,157312
2017-02-27T15:52:19.211Z,155296
2017-02-27T15:53:33.004Z,37408
2017-02-27T15:54:46.213Z,36384
2017-02-27T15:55:59.406Z,40064
2017-02-27T15:57:13.675Z,56000
2017-02-27T15:58:28.108Z,37824
2017-02-27T15:59:41.903Z,37024
2017-02-27T16:00:56.355Z,33024
2017-02-27T16:02:10.200Z,38560
2017-02-27T16:03:24.714Z,142240
2017-02-27T16:04:39.227Z,48288
2017-02-27T16:05:53.062Z,62368
2017-02-27T16:07:07.527Z,149952
2017-02-27T16:08:22.018Z,139552
2017-02-27T16:09:36.479Z,144512
2017-02-27T16:10:50.303Z,145312
2017-02-27T16:12:07.347Z,133760
2017-02-27T16:13:21.169Z,132064
2017-02-27T16:14:34.937Z,48000
2017-02-27T16:15:48.733Z,131776
2017-02-27T16:17:01.919Z,130944
2017-02-27T16:18:15.693Z,135392
2017-02-27T16:19:29.511Z,129376
2017-02-27T16:20:43.306Z,127520
2017-02-27T16:21:57.082Z,134560
2017-02-27T16:23:10.905Z,136096
2017-02-27T16:24:24.097Z,135040
2017-02-27T16:25:37.871Z,139392
2017-02-27T16:26:51.650Z,138528
2017-02-27T16:28:05.444Z,137792
2017-02-27T16:29:18.608Z,140608
2017-02-27T16:30:32.441Z,34336
2017-02-27T16:31:46.234Z,28480
2017-02-27T16:33:00.039Z,27808
2017-02-27T16:34:13.795Z,28288
2017-02-27T16:35:26.391Z,29696
2017-02-27T16:36:40.150Z,30112
2017-02-27T16:37:53.934Z,31392
2017-02-27T16:39:07.715Z,36608
2017-02-27T16:40:20.882Z,143392
2017-02-27T16:41:34.692Z,145536
2017-02-27T16:42:48.489Z,144064
2017-02-27T16:44:02.263Z,139744
2017-02-27T16:45:16.082Z,131904
2017-02-27T16:46:29.882Z,135168
2017-02-27T16:47:43.670Z,55648
2017-02-27T16:48:57.435Z,136384
2017-02-27T16:50:11.223Z,69056
2017-02-27T16:51:24.488Z,33952
2017-02-27T16:52:38.282Z,30432
2017-02-27T16:53:52.062Z,30080
2017-02-27T16:55:05.851Z,31424
2017-02-27T16:56:19.037Z,39680
2017-02-27T16:57:32.814Z,130368
2017-02-27T16:58:46.622Z,65536
2017-02-27T17:00:00.428Z,38880
2017-02-27T17:01:14.196Z,51360
2017-02-27T17:02:26.801Z,38848
2017-02-27T17:03:39.968Z,37536
2017-02-27T17:04:53.752Z,43424
2017-02-27T17:06:07.533Z,68640
2017-02-27T17:07:21.316Z,46016
2017-02-27T17:08:35.098Z,117856
2017-02-27T17:09:48.877Z,126528
2017-02-27T17:11:02.687Z,37536
2017-02-27T17:12:15.870Z,123520
2017-02-27T17:13:29.048Z,40928
2017-02-27T17:14:42.832Z,37952
2017-02-27T17:15:56.599Z,125920